createdAt,value
2022-11-03T00:01:48.668Z,10.96
2022-11-03T00:04:18.642Z,11.00
2022-11-03T00:06:49.303Z,10.98
2022-11-03T00:09:18.913Z,10.98
2022-11-03T00:11:48.060Z,11.01
2022-11-03T00:14:15.063Z,11.02
2022-11-03T00:16:42.069Z,11.00
2022-11-03T00:19:10.290Z,10.99
2022-11-03T00:21:38.477Z,10.96
2022-11-03T00:24:06.228Z,10.97
2022-11-03T00:26:35.798Z,10.99
2022-11-03T00:29:09.522Z,10.97
2022-11-03T00:31:39.273Z,10.97
2022-11-03T00:34:07.250Z,10.98
2022-11-03T00:36:42.967Z,10.99
2022-11-03T00:39:11.045Z,10.99
2022-11-03T00:41:38.592Z,10.99
2022-11-03T00:44:05.678Z,10.98
2022-11-03T00:46:35.642Z,10.99
2022-11-03T00:49:04.348Z,11.02
2022-11-03T00:51:31.306Z,11.01
2022-11-03T00:54:00.829Z,11.04
2022-11-03T00:56:37.661Z,11.09
2022-11-03T00:59:06.862Z,11.05
2022-11-03T01:01:45.303Z,11.08
2022-11-03T01:04:33.465Z,11.10
2022-11-03T01:07:01.835Z,11.11
2022-11-03T01:09:38.375Z,11.06
2022-11-03T01:12:11.278Z,11.05
2022-11-03T01:14:52.808Z,11.07
2022-11-03T01:17:25.298Z,11.05
2022-11-03T01:19:53.111Z,11.03
2022-11-03T01:22:21.018Z,11.10
2022-11-03T01:24:48.274Z,11.12
2022-11-03T01:27:18.605Z,11.13
2022-11-03T01:29:45.902Z,11.17
2022-11-03T01:32:13.310Z,11.17
2022-11-03T01:34:40.431Z,11.18
2022-11-03T01:37:07.455Z,11.16
2022-11-03T01:39:34.584Z,11.19
2022-11-03T01:42:01.567Z,11.15
2022-11-03T01:44:40.143Z,11.15
2022-11-03T01:47:14.688Z,11.19
2022-11-03T01:49:52.827Z,11.21
2022-11-03T01:52:39.130Z,11.20
2022-11-03T01:55:21.983Z,11.16
2022-11-03T01:58:02.650Z,11.18
2022-11-03T02:00:29.738Z,11.22
2022-11-03T02:02:57.090Z,11.20
2022-11-03T02:05:26.189Z,11.18
2022-11-03T02:08:25.184Z,11.17
2022-11-03T02:10:52.173Z,11.14
2022-11-03T02:13:25.364Z,11.15
2022-11-03T02:15:59.105Z,11.14
2022-11-03T02:18:34.786Z,11.14
2022-11-03T02:21:35.790Z,11.15
2022-11-03T02:24:23.495Z,11.13
2022-11-03T02:26:56.011Z,11.16
2022-11-03T02:29:23.150Z,11.17
2022-11-03T02:31:58.809Z,11.16
2022-11-03T02:34:45.809Z,11.16
2022-11-03T02:37:21.621Z,11.13
2022-11-03T02:39:57.116Z,11.15
2022-11-03T02:42:25.646Z,11.17
2022-11-03T02:44:57.964Z,11.15
2022-11-03T02:47:28.312Z,11.16
2022-11-03T02:52:45.737Z,11.22
2022-11-03T02:55:39.417Z,11.19
2022-11-03T02:58:14.771Z,11.17
2022-11-03T03:00:56.499Z,11.17
2022-11-03T03:03:37.017Z,11.17
2022-11-03T03:06:22.060Z,11.21
2022-11-03T03:08:56.463Z,11.19
2022-11-03T03:11:37.508Z,11.17
2022-11-03T03:14:14.689Z,11.22
2022-11-03T03:16:57.077Z,11.24
2022-11-03T03:19:42.278Z,11.23
2022-11-03T03:22:47.966Z,11.26
2022-11-03T03:25:36.297Z,11.29
2022-11-03T03:28:24.495Z,11.29
2022-11-03T03:30:55.554Z,11.30
2022-11-03T03:33:24.770Z,11.33
2022-11-03T03:35:53.537Z,11.34
2022-11-03T03:38:30.622Z,11.45
2022-11-03T03:41:03.480Z,11.46
2022-11-03T03:43:34.832Z,11.48
2022-11-03T03:46:08.166Z,11.52
2022-11-03T03:48:35.271Z,11.52
2022-11-03T03:51:02.827Z,11.49
2022-11-03T03:53:30.921Z,11.53
2022-11-03T03:55:59.414Z,11.61
2022-11-03T03:58:26.425Z,11.59
2022-11-03T04:00:53.367Z,11.62
2022-11-03T04:03:23.913Z,11.62
2022-11-03T04:05:51.574Z,11.62
2022-11-03T04:08:19.382Z,11.65
2022-11-03T04:11:05.406Z,11.65
2022-11-03T04:13:52.009Z,11.65
2022-11-03T04:16:37.466Z,11.73
2022-11-03T04:19:23.305Z,11.71
2022-11-03T04:22:09.033Z,11.73
2022-11-03T04:24:35.914Z,11.69
2022-11-03T04:27:26.551Z,11.69
2022-11-03T04:30:09.688Z,11.73
2022-11-03T04:32:37.616Z,11.70
2022-11-03T04:35:19.086Z,11.69
2022-11-03T04:37:51.309Z,11.69
2022-11-03T04:40:18.611Z,11.68
2022-11-03T04:42:46.221Z,11.68
2022-11-03T04:45:28.630Z,11.66
2022-11-03T04:47:55.635Z,11.63
2022-11-03T04:50:24.381Z,11.60
2022-11-03T04:53:00.462Z,11.55
2022-11-03T04:55:27.626Z,11.55
2022-11-03T04:58:22.946Z,11.51
2022-11-03T05:00:57.262Z,11.50
2022-11-03T05:03:29.520Z,11.47
2022-11-03T05:05:57.643Z,11.43
2022-11-03T05:08:25.379Z,11.47
2022-11-03T05:10:52.734Z,11.44
2022-11-03T05:13:26.195Z,11.41
2022-11-03T05:16:03.932Z,11.42
2022-11-03T05:18:39.204Z,11.40
2022-11-03T05:21:21.076Z,11.39
2022-11-03T05:24:02.988Z,11.38
2022-11-03T05:26:39.275Z,11.39
2022-11-03T05:29:30.383Z,11.38
2022-11-03T05:31:57.549Z,11.36
2022-11-03T05:34:27.394Z,11.45
2022-11-03T05:36:54.618Z,11.41
2022-11-03T05:39:26.578Z,11.42
2022-11-03T05:41:53.541Z,11.42
2022-11-03T05:44:26.936Z,11.42
2022-11-03T05:46:53.832Z,11.40
2022-11-03T05:49:21.284Z,11.40
2022-11-03T05:51:48.413Z,11.40
2022-11-03T05:54:26.372Z,11.41
2022-11-03T05:56:54.938Z,11.42
2022-11-03T05:59:26.823Z,11.45
2022-11-03T06:01:55.642Z,11.45
2022-11-03T06:04:33.346Z,11.46
2022-11-03T06:07:37.650Z,11.49
2022-11-03T06:10:23.960Z,11.51
2022-11-03T06:12:51.178Z,11.55
2022-11-03T06:15:34.974Z,11.55
2022-11-03T06:18:16.835Z,11.57
2022-11-03T06:20:52.878Z,11.57
2022-11-03T06:23:21.639Z,11.62
2022-11-03T06:25:52.460Z,11.62
2022-11-03T06:28:26.883Z,11.64
2022-11-03T06:30:54.035Z,11.62
2022-11-03T06:33:33.960Z,11.61
2022-11-03T06:36:18.349Z,11.60
2022-11-03T06:38:52.875Z,11.60
2022-11-03T06:41:29.959Z,11.60
2022-11-03T06:44:00.674Z,11.61
2022-11-03T06:46:28.116Z,11.60
2022-11-03T06:48:59.106Z,11.58
2022-11-03T06:51:30.987Z,11.60
2022-11-03T06:54:01.751Z,11.60
2022-11-03T06:56:31.872Z,11.61
2022-11-03T06:58:58.791Z,11.61
2022-11-03T07:01:31.423Z,11.61
2022-11-03T07:04:02.379Z,11.62
2022-11-03T07:06:36.640Z,11.64
2022-11-03T07:09:09.679Z,11.69
2022-11-03T07:11:45.111Z,11.71
2022-11-03T07:14:19.964Z,11.73
2022-11-03T07:16:48.830Z,11.74
2022-11-03T07:19:21.383Z,11.76
2022-11-03T07:21:59.733Z,11.78
2022-11-03T07:24:30.334Z,11.80
2022-11-03T07:27:12.121Z,11.84
2022-11-03T07:29:39.202Z,11.88
2022-11-03T07:32:16.266Z,11.92
2022-11-03T07:34:43.151Z,11.93
2022-11-03T07:37:23.225Z,11.94
2022-11-03T07:39:51.129Z,11.97
2022-11-03T07:42:24.025Z,11.98
2022-11-03T07:44:52.357Z,12.04
2022-11-03T07:47:29.168Z,12.06
2022-11-03T07:49:56.619Z,12.08
2022-11-03T07:52:26.046Z,12.09
2022-11-03T07:54:57.129Z,12.12
2022-11-03T07:57:32.155Z,12.14
2022-11-03T08:00:10.305Z,12.20
2022-11-03T08:02:39.488Z,12.20
2022-11-03T08:05:08.407Z,12.24
2022-11-03T08:07:35.340Z,12.23
2022-11-03T08:10:02.314Z,12.28
2022-11-03T08:12:29.223Z,12.31
2022-11-03T08:14:56.108Z,12.34
2022-11-03T08:17:23.069Z,12.34
2022-11-03T08:19:50.102Z,12.37
2022-11-03T08:22:17.013Z,12.36
2022-11-03T08:24:44.105Z,12.42
2022-11-03T08:27:11.054Z,12.42
2022-11-03T08:29:37.944Z,12.43
2022-11-03T08:32:05.176Z,12.47
2022-11-03T08:34:32.048Z,12.52
2022-11-03T08:36:58.915Z,12.53
2022-11-03T08:39:25.806Z,12.52
2022-11-03T08:41:52.673Z,12.54
2022-11-03T08:44:19.554Z,12.60
2022-11-03T08:46:46.478Z,12.59
2022-11-03T08:49:13.414Z,12.67
2022-11-03T08:51:44.405Z,12.68
2022-11-03T08:54:11.752Z,12.67
2022-11-03T08:56:38.694Z,12.75
2022-11-03T08:59:05.568Z,12.75
2022-11-03T09:01:32.749Z,12.79
2022-11-03T09:03:59.786Z,12.82
2022-11-03T09:06:26.715Z,12.82
2022-11-03T09:11:40.519Z,12.94
2022-11-03T09:14:07.439Z,13.00
2022-11-03T09:16:34.325Z,13.09
2022-11-03T09:19:01.215Z,13.10
2022-11-03T09:21:28.100Z,13.11
2022-11-03T09:23:55.119Z,13.15
2022-11-03T09:26:22.190Z,13.20
2022-11-03T09:28:49.526Z,13.17
2022-11-03T09:31:17.127Z,13.17
2022-11-03T09:33:44.094Z,13.20
2022-11-03T09:36:11.154Z,13.24
2022-11-03T09:38:38.035Z,13.28
2022-11-03T09:41:13.962Z,13.30
2022-11-03T09:43:53.961Z,13.31
2022-11-03T09:46:20.887Z,13.33
2022-11-03T09:48:47.893Z,13.44
2022-11-03T09:51:20.994Z,13.55
2022-11-03T09:53:48.834Z,13.60
2022-11-03T09:56:22.690Z,13.70
2022-11-03T09:58:54.006Z,13.86
2022-11-03T10:01:22.580Z,13.93
2022-11-03T10:03:49.914Z,13.98
2022-11-03T10:06:17.470Z,14.04
2022-11-03T10:08:46.658Z,14.01
2022-11-03T10:11:14.858Z,14.05
2022-11-03T10:13:49.919Z,13.95
2022-11-03T10:16:21.388Z,13.96
2022-11-03T10:18:49.377Z,13.89
2022-11-03T10:21:20.351Z,13.86
2022-11-03T10:23:50.164Z,13.90
2022-11-03T10:26:19.600Z,13.89
2022-11-03T10:29:09.126Z,13.80
2022-11-03T10:31:39.462Z,13.81
2022-11-03T10:34:37.356Z,13.77
2022-11-03T10:37:22.665Z,13.74
2022-11-03T10:39:52.814Z,13.73
2022-11-03T10:42:24.582Z,13.67
2022-11-03T10:44:54.804Z,13.76
2022-11-03T10:47:34.135Z,13.69
2022-11-03T10:50:25.082Z,13.71
2022-11-03T10:52:52.928Z,13.69
2022-11-03T10:55:25.004Z,13.72
2022-11-03T10:57:55.600Z,13.76
2022-11-03T11:00:23.913Z,13.77
2022-11-03T11:02:56.666Z,13.79
2022-11-03T11:05:24.860Z,13.84
2022-11-03T11:07:54.007Z,13.89
2022-11-03T11:10:25.242Z,13.91
2022-11-03T11:13:22.983Z,13.94
2022-11-03T11:15:57.923Z,13.97
2022-11-03T11:18:30.637Z,13.94
2022-11-03T11:21:02.092Z,14.00
2022-11-03T11:23:29.025Z,14.04
2022-11-03T11:26:11.129Z,14.04
2022-11-03T11:28:40.814Z,14.09
2022-11-03T11:31:32.529Z,14.08
2022-11-03T11:34:18.256Z,14.15
2022-11-03T11:37:03.731Z,14.16
2022-11-03T11:39:31.079Z,14.23
2022-11-03T11:42:21.733Z,14.32
2022-11-03T11:44:56.935Z,14.40
2022-11-03T11:47:43.510Z,14.41
2022-11-03T11:50:20.969Z,14.46
2022-11-03T11:53:10.933Z,14.46
2022-11-03T11:55:48.685Z,14.48
2022-11-03T11:58:29.889Z,14.52
2022-11-03T12:01:06.614Z,14.57
2022-11-03T12:03:45.281Z,14.61
2022-11-03T12:06:15.871Z,14.64
2022-11-03T12:08:43.927Z,14.67
2022-11-03T12:11:13.226Z,14.63
2022-11-03T12:13:52.426Z,14.60
2022-11-03T12:16:31.875Z,14.67
2022-11-03T12:19:39.709Z,14.63
2022-11-03T12:22:26.163Z,14.65
2022-11-03T12:25:00.781Z,14.63
2022-11-03T12:27:27.625Z,14.63
2022-11-03T12:29:55.643Z,14.57
2022-11-03T12:32:33.588Z,14.68
2022-11-03T12:35:03.459Z,14.71
2022-11-03T12:37:30.334Z,14.74
2022-11-03T12:39:57.191Z,14.78
2022-11-03T12:42:25.185Z,14.81
2022-11-03T12:44:52.947Z,14.89
2022-11-03T12:47:20.642Z,14.91
2022-11-03T12:49:47.672Z,14.96
2022-11-03T12:52:14.946Z,14.97
2022-11-03T12:54:44.954Z,14.98
2022-11-03T12:57:11.876Z,15.05
2022-11-03T12:59:38.886Z,15.09
2022-11-03T13:02:06.950Z,15.13
2022-11-03T13:04:33.936Z,15.18
2022-11-03T13:07:00.823Z,15.30
2022-11-03T13:09:27.699Z,15.39
2022-11-03T13:12:13.303Z,15.43
2022-11-03T13:14:44.429Z,15.45
2022-11-03T13:17:13.233Z,15.46
2022-11-03T13:19:40.081Z,15.41
2022-11-03T13:22:06.943Z,15.38
2022-11-03T13:24:33.876Z,15.27
2022-11-03T13:27:00.746Z,15.25
2022-11-03T13:29:32.429Z,15.14
2022-11-03T13:32:03.419Z,15.09
2022-11-03T13:34:30.901Z,15.06
2022-11-03T13:36:58.655Z,15.01
2022-11-03T13:39:25.687Z,15.03
2022-11-03T13:41:52.654Z,14.97
2022-11-03T13:44:19.779Z,14.91
2022-11-03T13:46:46.667Z,14.91
2022-11-03T13:52:00.431Z,14.88
2022-11-03T14:00:03.634Z,14.86
2022-11-03T14:05:19.582Z,14.83
2022-11-03T14:07:46.516Z,14.80
2022-11-03T14:10:13.408Z,14.73
2022-11-03T14:12:40.282Z,14.70
2022-11-03T14:15:12.302Z,14.73
2022-11-03T14:17:40.372Z,14.74
2022-11-03T14:20:12.211Z,14.68
2022-11-03T14:22:40.767Z,14.67
2022-11-03T14:25:08.740Z,14.61
2022-11-03T14:27:35.743Z,14.59
2022-11-03T14:30:03.065Z,14.61
2022-11-03T14:32:29.972Z,14.56
2022-11-03T14:34:56.948Z,14.63
2022-11-03T14:37:25.328Z,14.57
2022-11-03T14:39:52.390Z,14.54
2022-11-03T14:42:19.293Z,14.55
2022-11-03T14:44:47.293Z,14.57
2022-11-03T14:47:18.039Z,14.53
2022-11-03T14:49:46.511Z,14.48
2022-11-03T14:52:14.817Z,14.47
2022-11-03T14:54:42.918Z,14.40
2022-11-03T14:57:10.109Z,14.38
2022-11-03T14:59:37.067Z,14.37
2022-11-03T15:02:05.801Z,14.36
2022-11-03T15:04:32.945Z,14.32
2022-11-03T15:06:59.967Z,14.26
2022-11-03T15:09:26.921Z,14.20
2022-11-03T15:11:53.851Z,14.15
2022-11-03T15:14:20.783Z,14.12
2022-11-03T15:16:47.999Z,14.04
2022-11-03T15:19:14.941Z,14.05
2022-11-03T15:21:41.881Z,13.99
2022-11-03T15:26:55.826Z,13.89
2022-11-03T15:29:23.866Z,13.85
2022-11-03T15:31:50.771Z,13.79
2022-11-03T15:34:18.017Z,13.78
2022-11-03T15:36:45.117Z,13.74
2022-11-03T15:39:13.088Z,13.71
2022-11-03T15:41:40.002Z,13.69
2022-11-03T15:44:06.895Z,13.65
2022-11-03T15:46:35.346Z,13.61
2022-11-03T15:49:02.968Z,13.59
2022-11-03T15:51:29.846Z,13.57
2022-11-03T15:53:58.912Z,13.54
2022-11-03T15:56:27.513Z,13.51
2022-11-03T15:58:54.743Z,13.48
2022-11-03T16:01:21.849Z,13.45
2022-11-03T16:03:48.872Z,13.42
2022-11-03T16:06:16.241Z,13.38
2022-11-03T16:08:43.431Z,13.39
2022-11-03T16:11:10.288Z,13.39
2022-11-03T16:13:37.159Z,13.35
2022-11-03T16:16:04.283Z,13.34
2022-11-03T16:18:31.184Z,13.29
2022-11-03T16:20:58.076Z,13.31
2022-11-03T16:23:24.972Z,13.29
2022-11-03T16:25:51.921Z,13.25
2022-11-03T16:28:18.798Z,13.17
2022-11-03T16:30:51.116Z,13.15
2022-11-03T16:33:20.926Z,13.18
2022-11-03T16:35:47.823Z,13.14
2022-11-03T16:38:15.276Z,13.14
2022-11-03T16:40:42.967Z,13.09
2022-11-03T16:43:11.861Z,13.10
2022-11-03T16:45:39.065Z,13.06
2022-11-03T16:48:07.691Z,13.03
2022-11-03T16:50:34.874Z,13.03
2022-11-03T16:53:02.013Z,12.99
2022-11-03T16:55:28.887Z,12.94
2022-11-03T16:57:55.933Z,12.92
2022-11-03T17:00:24.038Z,12.89
2022-11-03T17:02:50.998Z,12.90
2022-11-03T17:05:20.633Z,12.86
2022-11-03T17:07:53.246Z,12.84
2022-11-03T17:10:21.285Z,12.77
2022-11-03T17:12:48.264Z,12.75
2022-11-03T17:15:15.372Z,12.72
2022-11-03T17:17:42.290Z,12.69
2022-11-03T17:20:11.694Z,12.63
2022-11-03T17:22:38.769Z,12.57
2022-11-03T17:25:09.359Z,12.54
2022-11-03T17:27:47.926Z,12.51
2022-11-03T17:30:21.651Z,12.49
2022-11-03T17:32:50.741Z,12.45
2022-11-03T17:35:39.602Z,12.42
2022-11-03T17:38:13.742Z,12.31
2022-11-03T17:40:43.039Z,12.33
2022-11-03T17:43:24.714Z,12.32
2022-11-03T17:45:52.121Z,12.32
2022-11-03T17:48:19.475Z,12.30
2022-11-03T17:50:49.918Z,12.28
2022-11-03T17:53:27.278Z,12.26
2022-11-03T17:56:28.045Z,12.22
2022-11-03T17:58:46.557Z,12.22
2022-11-03T18:01:27.140Z,12.20
2022-11-03T18:03:54.500Z,12.24
2022-11-03T18:06:22.297Z,12.20
2022-11-03T18:08:50.110Z,12.23
2022-11-03T18:11:45.217Z,12.23
2022-11-03T18:14:12.698Z,12.24
2022-11-03T18:16:40.616Z,12.24
2022-11-03T18:19:15.351Z,12.21
2022-11-03T18:21:42.656Z,12.20
2022-11-03T18:24:18.195Z,12.15
2022-11-03T18:26:45.209Z,12.12
2022-11-03T18:29:12.093Z,12.13
2022-11-03T18:31:49.503Z,12.14
2022-11-03T18:34:22.769Z,12.16
2022-11-03T18:36:49.933Z,12.11
2022-11-03T18:39:25.530Z,12.08
2022-11-03T18:41:52.683Z,12.09
2022-11-03T18:44:29.008Z,12.05
2022-11-03T18:46:56.882Z,12.05
2022-11-03T18:49:27.042Z,12.05
2022-11-03T18:52:03.528Z,12.08
2022-11-03T18:54:33.866Z,12.09
2022-11-03T18:57:01.991Z,12.08
2022-11-03T18:59:37.428Z,12.10
2022-11-03T19:02:16.360Z,12.05
2022-11-03T19:04:43.551Z,12.07
2022-11-03T19:07:14.227Z,12.05
2022-11-03T19:09:42.435Z,12.04
2022-11-03T19:12:13.852Z,12.01
2022-11-03T19:14:44.823Z,12.03
2022-11-03T19:17:23.006Z,12.07
2022-11-03T19:19:52.511Z,12.02
2022-11-03T19:22:22.241Z,12.05
2022-11-03T19:24:49.519Z,12.04
2022-11-03T19:27:25.706Z,12.02
2022-11-03T19:29:52.979Z,12.06
2022-11-03T19:32:25.032Z,12.02
2022-11-03T19:34:59.793Z,12.06
2022-11-03T19:37:34.052Z,12.04
2022-11-03T19:40:02.421Z,12.06
2022-11-03T19:42:30.854Z,12.05
2022-11-03T19:44:59.953Z,12.06
2022-11-03T19:47:32.782Z,12.07
2022-11-03T19:50:02.219Z,12.06
2022-11-03T19:52:31.498Z,12.08
2022-11-03T19:55:02.257Z,12.06
2022-11-03T19:57:29.183Z,12.03
2022-11-03T19:59:58.821Z,12.03
2022-11-03T20:02:28.044Z,12.05
2022-11-03T20:04:55.257Z,12.04
2022-11-03T20:07:28.135Z,12.04
2022-11-03T20:09:58.487Z,12.03
2022-11-03T20:12:25.500Z,12.03
2022-11-03T20:14:52.427Z,12.03
2022-11-03T20:17:22.732Z,12.03
2022-11-03T20:19:49.957Z,12.03
2022-11-03T20:22:24.071Z,11.98
2022-11-03T20:24:55.545Z,11.95
2022-11-03T20:27:22.477Z,11.97
2022-11-03T20:29:49.475Z,11.95
2022-11-03T20:32:16.642Z,11.92
2022-11-03T20:34:43.619Z,11.93
2022-11-03T20:37:18.795Z,11.92
2022-11-03T20:39:47.342Z,11.89
2022-11-03T20:42:26.053Z,11.89
2022-11-03T20:44:53.207Z,11.88
2022-11-03T20:47:20.799Z,11.88
2022-11-03T20:49:48.346Z,11.86
2022-11-03T20:52:16.465Z,11.85
2022-11-03T20:54:43.888Z,11.84
2022-11-03T20:57:14.261Z,11.85
2022-11-03T20:59:41.929Z,11.85
2022-11-03T21:02:12.323Z,11.83
2022-11-03T21:04:40.184Z,11.85
2022-11-03T21:07:09.196Z,11.80
2022-11-03T21:09:36.045Z,11.84
2022-11-03T21:12:03.141Z,11.79
2022-11-03T21:14:32.730Z,11.81
2022-11-03T21:17:18.366Z,11.78
2022-11-03T21:20:03.533Z,11.77
2022-11-03T21:22:55.646Z,11.76
2022-11-03T21:25:24.383Z,11.71
2022-11-03T21:27:53.498Z,11.70
2022-11-03T21:30:20.672Z,11.66
2022-11-03T21:32:47.907Z,11.61
2022-11-03T21:35:19.264Z,11.61
2022-11-03T21:37:46.233Z,11.60
2022-11-03T21:40:13.170Z,11.60
2022-11-03T21:42:58.720Z,11.60
2022-11-03T21:45:26.082Z,11.58
2022-11-03T21:48:13.878Z,11.57
2022-11-03T21:50:42.446Z,11.55
2022-11-03T21:53:10.435Z,11.54
2022-11-03T21:55:37.918Z,11.54
2022-11-03T21:58:04.914Z,11.51
2022-11-03T22:00:32.487Z,11.49
2022-11-03T22:03:00.387Z,11.50
2022-11-03T22:05:27.992Z,11.49
2022-11-03T22:07:55.092Z,11.48
2022-11-03T22:10:22.626Z,11.43
2022-11-03T22:12:49.524Z,11.44
2022-11-03T22:15:36.906Z,11.44
2022-11-03T22:18:06.247Z,11.42
2022-11-03T22:20:52.124Z,11.40
2022-11-03T22:23:37.726Z,11.40
2022-11-03T22:26:23.554Z,11.41
2022-11-03T22:29:10.391Z,11.39
2022-11-03T22:31:43.482Z,11.31
2022-11-03T22:34:29.379Z,11.33
2022-11-03T22:36:56.468Z,11.30
2022-11-03T22:39:41.896Z,11.30
2022-11-03T22:42:30.846Z,11.29
2022-11-03T22:45:16.260Z,11.31
2022-11-03T22:47:43.164Z,11.31
2022-11-03T22:50:10.266Z,11.36
2022-11-03T22:52:37.219Z,11.35
2022-11-03T22:55:04.778Z,11.34
2022-11-03T22:57:31.695Z,11.34
2022-11-03T22:59:58.570Z,11.35
2022-11-03T23:02:25.720Z,11.33
2022-11-03T23:04:52.677Z,11.36
2022-11-03T23:07:19.612Z,11.34
2022-11-03T23:09:46.540Z,11.35
2022-11-03T23:12:13.470Z,11.36
2022-11-03T23:14:59.134Z,11.32
2022-11-03T23:17:45.972Z,11.33
2022-11-03T23:20:32.685Z,11.33
2022-11-03T23:22:59.567Z,11.35
2022-11-03T23:25:26.442Z,11.37
2022-11-03T23:27:53.658Z,11.37
2022-11-03T23:30:20.557Z,11.36
2022-11-03T23:32:47.414Z,11.35
2022-11-03T23:35:14.574Z,11.35
2022-11-03T23:37:41.505Z,11.35
2022-11-03T23:40:09.241Z,11.33
2022-11-03T23:42:36.116Z,11.32
2022-11-03T23:45:21.570Z,11.31
2022-11-03T23:48:07.948Z,11.27
2022-11-03T23:50:35.083Z,11.25
2022-11-03T23:53:01.938Z,11.19
2022-11-03T23:55:49.036Z,11.16
2022-11-03T23:58:18.863Z,11.15
